sensor_id;sensor_type;location;lat;lon;timestamp;P1;durP1;ratioP1;P2;durP2;ratioP2
5379;SDS011;2713;42.680;23.310;2023-01-05T00:00:11;23.73;;;14.27;;
5379;SDS011;2713;42.680;23.310;2023-01-05T00:02:39;20.80;;;14.20;;
5379;SDS011;2713;42.680;23.310;2023-01-05T00:05:06;22.77;;;14.67;;
5379;SDS011;2713;42.680;23.310;2023-01-05T00:07:33;28.23;;;15.00;;
5379;SDS011;2713;42.680;23.310;2023-01-05T00:10:00;26.43;;;15.77;;
5379;SDS011;2713;42.680;23.310;2023-01-05T00:12:27;23.77;;;16.10;;
5379;SDS011;2713;42.680;23.310;2023-01-05T00:15:12;21.10;;;14.90;;
5379;SDS011;2713;42.680;23.310;2023-01-05T00:17:56;20.30;;;13.77;;
5379;SDS011;2713;42.680;23.310;2023-01-05T00:20:41;20.07;;;13.47;;
5379;SDS011;2713;42.680;23.310;2023-01-05T00:23:25;22.30;;;14.30;;
5379;SDS011;2713;42.680;23.310;2023-01-05T00:25:52;18.87;;;12.93;;
5379;SDS011;2713;42.680;23.310;2023-01-05T00:28:19;21.77;;;14.57;;
5379;SDS011;2713;42.680;23.310;2023-01-05T00:30:47;20.53;;;13.73;;
5379;SDS011;2713;42.680;23.310;2023-01-05T00:33:15;19.77;;;13.20;;
5379;SDS011;2713;42.680;23.310;2023-01-05T00:35:42;20.40;;;12.93;;
5379;SDS011;2713;42.680;23.310;2023-01-05T00:38:09;19.73;;;13.30;;
5379;SDS011;2713;42.680;23.310;2023-01-05T00:40:37;19.47;;;13.33;;
5379;SDS011;2713;42.680;23.310;2023-01-05T00:43:04;19.90;;;12.97;;
5379;SDS011;2713;42.680;23.310;2023-01-05T00:45:31;19.90;;;13.27;;
5379;SDS011;2713;42.680;23.310;2023-01-05T00:47:59;20.47;;;14.30;;
5379;SDS011;2713;42.680;23.310;2023-01-05T00:50:26;19.27;;;12.60;;
5379;SDS011;2713;42.680;23.310;2023-01-05T00:52:52;19.97;;;13.10;;
5379;SDS011;2713;42.680;23.310;2023-01-05T00:55:19;19.43;;;13.03;;
5379;SDS011;2713;42.680;23.310;2023-01-05T00:57:46;18.33;;;12.83;;
5379;SDS011;2713;42.680;23.310;2023-01-05T01:00:14;20.00;;;13.30;;
5379;SDS011;2713;42.680;23.310;2023-01-05T01:02:43;19.33;;;12.60;;
5379;SDS011;2713;42.680;23.310;2023-01-05T01:05:12;16.70;;;13.00;;
5379;SDS011;2713;42.680;23.310;2023-01-05T01:07:39;18.67;;;12.87;;
5379;SDS011;2713;42.680;23.310;2023-01-05T01:10:06;18.83;;;12.00;;
5379;SDS011;2713;42.680;23.310;2023-01-05T01:12:34;19.10;;;13.30;;
5379;SDS011;2713;42.680;23.310;2023-01-05T01:15:01;19.00;;;12.00;;
5379;SDS011;2713;42.680;23.310;2023-01-05T01:17:29;19.00;;;12.80;;
5379;SDS011;2713;42.680;23.310;2023-01-05T01:19:57;20.70;;;13.40;;
5379;SDS011;2713;42.680;23.310;2023-01-05T01:22:25;20.00;;;14.30;;
5379;SDS011;2713;42.680;23.310;2023-01-05T01:24:51;18.60;;;12.73;;
5379;SDS011;2713;42.680;23.310;2023-01-05T01:27:18;18.37;;;11.53;;
5379;SDS011;2713;42.680;23.310;2023-01-05T01:29:45;19.23;;;12.83;;
5379;SDS011;2713;42.680;23.310;2023-01-05T01:32:12;18.33;;;12.47;;
5379;SDS011;2713;42.680;23.310;2023-01-05T01:34:39;16.73;;;12.37;;
5379;SDS011;2713;42.680;23.310;2023-01-05T01:37:06;19.40;;;12.43;;
5379;SDS011;2713;42.680;23.310;2023-01-05T01:39:42;20.23;;;12.73;;
5379;SDS011;2713;42.680;23.310;2023-01-05T01:42:11;19.13;;;13.20;;
5379;SDS011;2713;42.680;23.310;2023-01-05T01:44:51;24.50;;;12.97;;
5379;SDS011;2713;42.680;23.310;2023-01-05T01:47:24;20.83;;;12.63;;
5379;SDS011;2713;42.680;23.310;2023-01-05T01:49:57;17.80;;;12.63;;
5379;SDS011;2713;42.680;23.310;2023-01-05T01:52:26;17.50;;;12.43;;
5379;SDS011;2713;42.680;23.310;2023-01-05T01:54:58;18.77;;;12.03;;
5379;SDS011;2713;42.680;23.310;2023-01-05T01:57:26;18.47;;;12.70;;
5379;SDS011;2713;42.680;23.310;2023-01-05T01:59:54;19.57;;;12.50;;
5379;SDS011;2713;42.680;23.310;2023-01-05T02:02:22;17.93;;;11.90;;
5379;SDS011;2713;42.680;23.310;2023-01-05T02:04:50;21.23;;;12.13;;
5379;SDS011;2713;42.680;23.310;2023-01-05T02:07:17;16.67;;;12.63;;
5379;SDS011;2713;42.680;23.310;2023-01-05T02:09:44;18.60;;;11.97;;
5379;SDS011;2713;42.680;23.310;2023-01-05T02:12:17;17.90;;;12.63;;
5379;SDS011;2713;42.680;23.310;2023-01-05T02:14:58;17.20;;;12.20;;
5379;SDS011;2713;42.680;23.310;2023-01-05T02:17:34;17.60;;;12.30;;
5379;SDS011;2713;42.680;23.310;2023-01-05T02:26:18;17.03;;;11.73;;
5379;SDS011;2713;42.680;23.310;2023-01-05T02:29:08;18.10;;;12.70;;
5379;SDS011;2713;42.680;23.310;2023-01-05T02:34:51;17.27;;;11.90;;
5379;SDS011;2713;42.680;23.310;2023-01-05T02:37:31;19.80;;;12.60;;
5379;SDS011;2713;42.680;23.310;2023-01-05T02:40:05;17.40;;;11.97;;
5379;SDS011;2713;42.680;23.310;2023-01-05T02:42:37;16.53;;;11.37;;
5379;SDS011;2713;42.680;23.310;2023-01-05T02:45:07;17.20;;;12.23;;
5379;SDS011;2713;42.680;23.310;2023-01-05T02:47:40;17.57;;;12.00;;
5379;SDS011;2713;42.680;23.310;2023-01-05T02:50:12;17.20;;;11.80;;
5379;SDS011;2713;42.680;23.310;2023-01-05T02:52:45;17.80;;;12.53;;
5379;SDS011;2713;42.680;23.310;2023-01-05T02:55:20;18.50;;;12.73;;
5379;SDS011;2713;42.680;23.310;2023-01-05T02:57:52;18.70;;;11.90;;
5379;SDS011;2713;42.680;23.310;2023-01-05T03:00:26;19.20;;;12.70;;
5379;SDS011;2713;42.680;23.310;2023-01-05T03:02:57;17.33;;;11.97;;
5379;SDS011;2713;42.680;23.310;2023-01-05T03:05:33;18.70;;;12.27;;
5379;SDS011;2713;42.680;23.310;2023-01-05T03:08:05;18.10;;;12.10;;
5379;SDS011;2713;42.680;23.310;2023-01-05T03:10:40;19.47;;;12.60;;
5379;SDS011;2713;42.680;23.310;2023-01-05T03:13:32;19.30;;;12.43;;
5379;SDS011;2713;42.680;23.310;2023-01-05T03:16:15;18.47;;;11.30;;
5379;SDS011;2713;42.680;23.310;2023-01-05T03:18:47;19.77;;;12.40;;
5379;SDS011;2713;42.680;23.310;2023-01-05T03:21:35;17.57;;;12.23;;
5379;SDS011;2713;42.680;23.310;2023-01-05T03:24:21;17.60;;;11.40;;
5379;SDS011;2713;42.680;23.310;2023-01-05T03:27:08;17.47;;;12.40;;
5379;SDS011;2713;42.680;23.310;2023-01-05T03:29:53;17.63;;;12.90;;
5379;SDS011;2713;42.680;23.310;2023-01-05T03:32:41;19.03;;;12.23;;
5379;SDS011;2713;42.680;23.310;2023-01-05T03:35:29;18.23;;;11.37;;
5379;SDS011;2713;42.680;23.310;2023-01-05T03:38:12;17.00;;;12.00;;
5379;SDS011;2713;42.680;23.310;2023-01-05T03:40:42;20.80;;;13.03;;
5379;SDS011;2713;42.680;23.310;2023-01-05T03:43:11;17.80;;;12.17;;
5379;SDS011;2713;42.680;23.310;2023-01-05T03:45:39;17.50;;;11.90;;
5379;SDS011;2713;42.680;23.310;2023-01-05T03:48:15;20.90;;;12.23;;
5379;SDS011;2713;42.680;23.310;2023-01-05T03:50:42;19.40;;;12.90;;
5379;SDS011;2713;42.680;23.310;2023-01-05T03:53:13;19.67;;;13.73;;
5379;SDS011;2713;42.680;23.310;2023-01-05T03:55:43;20.57;;;13.50;;
5379;SDS011;2713;42.680;23.310;2023-01-05T03:58:09;25.00;;;13.47;;
5379;SDS011;2713;42.680;23.310;2023-01-05T04:00:40;19.43;;;12.50;;
5379;SDS011;2713;42.680;23.310;2023-01-05T04:03:10;21.63;;;13.83;;
5379;SDS011;2713;42.680;23.310;2023-01-05T04:05:37;20.93;;;13.90;;
5379;SDS011;2713;42.680;23.310;2023-01-05T04:08:04;19.10;;;12.97;;
5379;SDS011;2713;42.680;23.310;2023-01-05T04:10:35;20.83;;;13.23;;
5379;SDS011;2713;42.680;23.310;2023-01-05T04:13:03;20.87;;;13.03;;
5379;SDS011;2713;42.680;23.310;2023-01-05T04:15:30;21.27;;;13.33;;
5379;SDS011;2713;42.680;23.310;2023-01-05T04:17:57;20.10;;;12.87;;
5379;SDS011;2713;42.680;23.310;2023-01-05T04:20:24;20.70;;;12.97;;
5379;SDS011;2713;42.680;23.310;2023-01-05T04:22:51;18.80;;;13.17;;
5379;SDS011;2713;42.680;23.310;2023-01-05T04:25:20;22.17;;;13.40;;
5379;SDS011;2713;42.680;23.310;2023-01-05T04:27:48;20.07;;;13.40;;
5379;SDS011;2713;42.680;23.310;2023-01-05T04:30:16;20.07;;;13.33;;
5379;SDS011;2713;42.680;23.310;2023-01-05T04:32:43;22.63;;;14.37;;
5379;SDS011;2713;42.680;23.310;2023-01-05T04:35:13;19.10;;;13.53;;
5379;SDS011;2713;42.680;23.310;2023-01-05T04:37:43;24.90;;;13.37;;
5379;SDS011;2713;42.680;23.310;2023-01-05T04:40:11;23.53;;;14.53;;
5379;SDS011;2713;42.680;23.310;2023-01-05T04:42:46;21.07;;;13.37;;
5379;SDS011;2713;42.680;23.310;2023-01-05T04:45:15;21.57;;;13.70;;
5379;SDS011;2713;42.680;23.310;2023-01-05T04:47:43;26.80;;;13.10;;
5379;SDS011;2713;42.680;23.310;2023-01-05T04:50:14;23.53;;;13.77;;
5379;SDS011;2713;42.680;23.310;2023-01-05T04:52:42;22.70;;;14.23;;
5379;SDS011;2713;42.680;23.310;2023-01-05T04:55:09;24.03;;;14.83;;
5379;SDS011;2713;42.680;23.310;2023-01-05T04:57:37;25.13;;;15.03;;
5379;SDS011;2713;42.680;23.310;2023-01-05T05:00:07;22.97;;;14.20;;
5379;SDS011;2713;42.680;23.310;2023-01-05T05:02:37;25.30;;;15.90;;
5379;SDS011;2713;42.680;23.310;2023-01-05T05:05:07;24.23;;;16.30;;
5379;SDS011;2713;42.680;23.310;2023-01-05T05:07:36;24.03;;;14.57;;
5379;SDS011;2713;42.680;23.310;2023-01-05T05:10:03;25.20;;;14.63;;
5379;SDS011;2713;42.680;23.310;2023-01-05T05:12:31;23.40;;;13.50;;
5379;SDS011;2713;42.680;23.310;2023-01-05T05:14:58;20.43;;;13.03;;
5379;SDS011;2713;42.680;23.310;2023-01-05T05:17:27;22.80;;;13.70;;
5379;SDS011;2713;42.680;23.310;2023-01-05T05:19:55;21.63;;;14.23;;
5379;SDS011;2713;42.680;23.310;2023-01-05T05:22:22;22.17;;;14.33;;
5379;SDS011;2713;42.680;23.310;2023-01-05T05:24:49;26.60;;;15.17;;
5379;SDS011;2713;42.680;23.310;2023-01-05T05:27:16;23.20;;;14.13;;
5379;SDS011;2713;42.680;23.310;2023-01-05T05:29:42;22.50;;;14.47;;
5379;SDS011;2713;42.680;23.310;2023-01-05T05:32:09;24.37;;;15.23;;
5379;SDS011;2713;42.680;23.310;2023-01-05T05:34:36;22.50;;;15.33;;
5379;SDS011;2713;42.680;23.310;2023-01-05T05:37:04;27.70;;;15.17;;
5379;SDS011;2713;42.680;23.310;2023-01-05T05:39:31;22.43;;;14.70;;
5379;SDS011;2713;42.680;23.310;2023-01-05T05:41:58;23.10;;;14.50;;
5379;SDS011;2713;42.680;23.310;2023-01-05T05:44:25;23.50;;;14.53;;
5379;SDS011;2713;42.680;23.310;2023-01-05T05:46:52;23.70;;;15.10;;
5379;SDS011;2713;42.680;23.310;2023-01-05T05:49:18;21.43;;;14.53;;
5379;SDS011;2713;42.680;23.310;2023-01-05T05:51:45;21.00;;;13.77;;
5379;SDS011;2713;42.680;23.310;2023-01-05T05:54:14;22.10;;;15.73;;
5379;SDS011;2713;42.680;23.310;2023-01-05T05:56:41;24.53;;;15.33;;
5379;SDS011;2713;42.680;23.310;2023-01-05T05:59:07;20.43;;;13.93;;
5379;SDS011;2713;42.680;23.310;2023-01-05T06:01:34;26.63;;;15.43;;
5379;SDS011;2713;42.680;23.310;2023-01-05T06:04:01;21.33;;;13.83;;
5379;SDS011;2713;42.680;23.310;2023-01-05T06:06:28;24.00;;;15.17;;
5379;SDS011;2713;42.680;23.310;2023-01-05T06:08:55;25.17;;;15.63;;
5379;SDS011;2713;42.680;23.310;2023-01-05T06:11:23;27.53;;;15.93;;
5379;SDS011;2713;42.680;23.310;2023-01-05T06:13:50;26.87;;;16.33;;
5379;SDS011;2713;42.680;23.310;2023-01-05T06:16:16;26.83;;;16.10;;
5379;SDS011;2713;42.680;23.310;2023-01-05T06:18:43;26.37;;;16.43;;
5379;SDS011;2713;42.680;23.310;2023-01-05T06:21:10;24.73;;;16.03;;
5379;SDS011;2713;42.680;23.310;2023-01-05T06:23:37;27.90;;;16.80;;
5379;SDS011;2713;42.680;23.310;2023-01-05T06:26:04;26.43;;;16.63;;
5379;SDS011;2713;42.680;23.310;2023-01-05T06:28:32;25.40;;;17.47;;
5379;SDS011;2713;42.680;23.310;2023-01-05T06:30:59;25.50;;;16.03;;
5379;SDS011;2713;42.680;23.310;2023-01-05T06:33:25;30.40;;;17.40;;
5379;SDS011;2713;42.680;23.310;2023-01-05T06:35:52;26.97;;;17.40;;
5379;SDS011;2713;42.680;23.310;2023-01-05T06:38:19;31.57;;;20.20;;
5379;SDS011;2713;42.680;23.310;2023-01-05T06:40:46;24.80;;;17.03;;
5379;SDS011;2713;42.680;23.310;2023-01-05T06:43:13;29.67;;;17.13;;
5379;SDS011;2713;42.680;23.310;2023-01-05T06:45:41;29.53;;;17.00;;
5379;SDS011;2713;42.680;23.310;2023-01-05T06:48:10;33.70;;;18.43;;
5379;SDS011;2713;42.680;23.310;2023-01-05T06:50:36;28.13;;;17.23;;
5379;SDS011;2713;42.680;23.310;2023-01-05T06:53:03;28.90;;;18.70;;
5379;SDS011;2713;42.680;23.310;2023-01-05T06:55:30;31.67;;;19.23;;
5379;SDS011;2713;42.680;23.310;2023-01-05T06:57:57;32.40;;;18.70;;
5379;SDS011;2713;42.680;23.310;2023-01-05T07:00:24;37.97;;;20.20;;
5379;SDS011;2713;42.680;23.310;2023-01-05T07:02:52;35.57;;;22.57;;
5379;SDS011;2713;42.680;23.310;2023-01-05T07:05:19;31.90;;;18.70;;
5379;SDS011;2713;42.680;23.310;2023-01-05T07:07:47;36.10;;;20.00;;
5379;SDS011;2713;42.680;23.310;2023-01-05T07:10:14;32.50;;;19.10;;
5379;SDS011;2713;42.680;23.310;2023-01-05T07:12:41;37.80;;;19.93;;
5379;SDS011;2713;42.680;23.310;2023-01-05T07:15:08;31.47;;;19.30;;
5379;SDS011;2713;42.680;23.310;2023-01-05T07:17:35;29.37;;;18.37;;
5379;SDS011;2713;42.680;23.310;2023-01-05T07:20:04;28.23;;;18.17;;
5379;SDS011;2713;42.680;23.310;2023-01-05T07:22:32;31.07;;;18.83;;
5379;SDS011;2713;42.680;23.310;2023-01-05T07:24:59;30.37;;;19.03;;
5379;SDS011;2713;42.680;23.310;2023-01-05T07:27:26;28.47;;;19.00;;
5379;SDS011;2713;42.680;23.310;2023-01-05T07:29:52;23.70;;;16.73;;
5379;SDS011;2713;42.680;23.310;2023-01-05T07:32:19;28.93;;;17.77;;
5379;SDS011;2713;42.680;23.310;2023-01-05T07:34:46;31.03;;;18.90;;
5379;SDS011;2713;42.680;23.310;2023-01-05T07:37:14;32.00;;;18.40;;
5379;SDS011;2713;42.680;23.310;2023-01-05T07:39:41;33.73;;;19.73;;
5379;SDS011;2713;42.680;23.310;2023-01-05T07:42:08;31.67;;;20.40;;
5379;SDS011;2713;42.680;23.310;2023-01-05T07:44:35;30.77;;;20.33;;
5379;SDS011;2713;42.680;23.310;2023-01-05T07:47:03;32.17;;;20.27;;
5379;SDS011;2713;42.680;23.310;2023-01-05T07:49:29;31.70;;;20.20;;
5379;SDS011;2713;42.680;23.310;2023-01-05T07:51:56;33.03;;;19.80;;
5379;SDS011;2713;42.680;23.310;2023-01-05T07:54:24;30.00;;;18.90;;
5379;SDS011;2713;42.680;23.310;2023-01-05T07:56:52;29.73;;;18.57;;
5379;SDS011;2713;42.680;23.310;2023-01-05T07:59:18;36.10;;;20.57;;
5379;SDS011;2713;42.680;23.310;2023-01-05T08:01:45;39.03;;;21.33;;
5379;SDS011;2713;42.680;23.310;2023-01-05T08:04:12;31.27;;;19.23;;
5379;SDS011;2713;42.680;23.310;2023-01-05T08:06:39;32.20;;;20.50;;
5379;SDS011;2713;42.680;23.310;2023-01-05T08:09:06;29.97;;;18.17;;
5379;SDS011;2713;42.680;23.310;2023-01-05T08:11:48;28.80;;;19.10;;
5379;SDS011;2713;42.680;23.310;2023-01-05T08:14:15;27.70;;;17.83;;
5379;SDS011;2713;42.680;23.310;2023-01-05T08:16:41;29.50;;;18.03;;
5379;SDS011;2713;42.680;23.310;2023-01-05T08:19:09;31.87;;;19.50;;
5379;SDS011;2713;42.680;23.310;2023-01-05T08:21:36;27.70;;;17.43;;
5379;SDS011;2713;42.680;23.310;2023-01-05T08:24:02;33.27;;;18.53;;
5379;SDS011;2713;42.680;23.310;2023-01-05T08:26:29;31.93;;;18.77;;
5379;SDS011;2713;42.680;23.310;2023-01-05T08:28:58;28.43;;;17.90;;
5379;SDS011;2713;42.680;23.310;2023-01-05T08:31:26;31.20;;;17.80;;
5379;SDS011;2713;42.680;23.310;2023-01-05T08:33:54;31.23;;;18.70;;
5379;SDS011;2713;42.680;23.310;2023-01-05T08:36:22;30.17;;;17.67;;
5379;SDS011;2713;42.680;23.310;2023-01-05T08:38:50;31.10;;;18.77;;
5379;SDS011;2713;42.680;23.310;2023-01-05T08:41:18;31.60;;;17.80;;
5379;SDS011;2713;42.680;23.310;2023-01-05T08:43:49;26.57;;;16.87;;
5379;SDS011;2713;42.680;23.310;2023-01-05T08:46:18;25.93;;;18.20;;
5379;SDS011;2713;42.680;23.310;2023-01-05T08:48:49;24.63;;;16.23;;
5379;SDS011;2713;42.680;23.310;2023-01-05T08:51:16;28.20;;;18.60;;
5379;SDS011;2713;42.680;23.310;2023-01-05T08:53:44;28.00;;;18.57;;
5379;SDS011;2713;42.680;23.310;2023-01-05T08:56:11;28.77;;;19.47;;
5379;SDS011;2713;42.680;23.310;2023-01-05T08:58:38;29.20;;;18.57;;
5379;SDS011;2713;42.680;23.310;2023-01-05T09:01:06;28.87;;;17.83;;
5379;SDS011;2713;42.680;23.310;2023-01-05T09:03:34;31.50;;;20.47;;
5379;SDS011;2713;42.680;23.310;2023-01-05T09:06:02;31.90;;;18.60;;
5379;SDS011;2713;42.680;23.310;2023-01-05T09:08:30;30.97;;;19.77;;
5379;SDS011;2713;42.680;23.310;2023-01-05T09:11:04;26.90;;;17.90;;
5379;SDS011;2713;42.680;23.310;2023-01-05T09:13:31;26.90;;;17.70;;
5379;SDS011;2713;42.680;23.310;2023-01-05T09:16:02;31.83;;;18.50;;
5379;SDS011;2713;42.680;23.310;2023-01-05T09:18:30;29.67;;;17.80;;
5379;SDS011;2713;42.680;23.310;2023-01-05T09:20:58;27.50;;;17.30;;
5379;SDS011;2713;42.680;23.310;2023-01-05T09:23:25;26.07;;;16.00;;
5379;SDS011;2713;42.680;23.310;2023-01-05T09:25:51;27.67;;;17.80;;
5379;SDS011;2713;42.680;23.310;2023-01-05T09:28:18;26.83;;;17.10;;
5379;SDS011;2713;42.680;23.310;2023-01-05T09:30:45;28.67;;;18.07;;
5379;SDS011;2713;42.680;23.310;2023-01-05T09:33:12;24.63;;;17.07;;
5379;SDS011;2713;42.680;23.310;2023-01-05T09:35:39;31.50;;;18.27;;
5379;SDS011;2713;42.680;23.310;2023-01-05T09:38:07;25.13;;;15.80;;
5379;SDS011;2713;42.680;23.310;2023-01-05T09:40:36;27.67;;;16.70;;
5379;SDS011;2713;42.680;23.310;2023-01-05T09:43:06;25.97;;;16.30;;
5379;SDS011;2713;42.680;23.310;2023-01-05T09:45:39;26.60;;;17.00;;
5379;SDS011;2713;42.680;23.310;2023-01-05T09:48:06;27.60;;;17.23;;
5379;SDS011;2713;42.680;23.310;2023-01-05T09:50:37;25.43;;;17.20;;
5379;SDS011;2713;42.680;23.310;2023-01-05T09:53:04;28.40;;;16.90;;
5379;SDS011;2713;42.680;23.310;2023-01-05T09:55:34;26.27;;;17.10;;
5379;SDS011;2713;42.680;23.310;2023-01-05T09:58:04;26.90;;;16.43;;
5379;SDS011;2713;42.680;23.310;2023-01-05T10:00:35;25.47;;;16.57;;
5379;SDS011;2713;42.680;23.310;2023-01-05T10:03:07;26.50;;;17.17;;
5379;SDS011;2713;42.680;23.310;2023-01-05T10:05:40;25.33;;;17.07;;
5379;SDS011;2713;42.680;23.310;2023-01-05T10:08:10;27.17;;;18.00;;
5379;SDS011;2713;42.680;23.310;2023-01-05T10:10:45;31.40;;;19.40;;
5379;SDS011;2713;42.680;23.310;2023-01-05T10:13:35;29.40;;;17.57;;
5379;SDS011;2713;42.680;23.310;2023-01-05T10:16:05;26.13;;;16.70;;
5379;SDS011;2713;42.680;23.310;2023-01-05T10:18:36;23.37;;;16.30;;
5379;SDS011;2713;42.680;23.310;2023-01-05T10:21:05;22.73;;;15.77;;
5379;SDS011;2713;42.680;23.310;2023-01-05T10:23:48;28.20;;;17.10;;
5379;SDS011;2713;42.680;23.310;2023-01-05T10:26:29;24.97;;;15.93;;
5379;SDS011;2713;42.680;23.310;2023-01-05T10:29:08;25.73;;;16.80;;
5379;SDS011;2713;42.680;23.310;2023-01-05T10:31:43;22.67;;;15.40;;
5379;SDS011;2713;42.680;23.310;2023-01-05T10:34:18;21.97;;;15.37;;
5379;SDS011;2713;42.680;23.310;2023-01-05T10:36:57;21.90;;;15.20;;
5379;SDS011;2713;42.680;23.310;2023-01-05T10:39:39;26.07;;;15.87;;
5379;SDS011;2713;42.680;23.310;2023-01-05T10:42:21;26.90;;;17.70;;
5379;SDS011;2713;42.680;23.310;2023-01-05T10:44:55;24.10;;;16.83;;
5379;SDS011;2713;42.680;23.310;2023-01-05T10:47:27;26.67;;;15.13;;
5379;SDS011;2713;42.680;23.310;2023-01-05T10:49:56;24.87;;;16.47;;
5379;SDS011;2713;42.680;23.310;2023-01-05T10:52:26;25.70;;;16.20;;
5379;SDS011;2713;42.680;23.310;2023-01-05T10:54:54;24.17;;;15.40;;
5379;SDS011;2713;42.680;23.310;2023-01-05T10:57:35;24.40;;;16.50;;
5379;SDS011;2713;42.680;23.310;2023-01-05T11:00:10;23.43;;;15.67;;
5379;SDS011;2713;42.680;23.310;2023-01-05T11:02:40;23.83;;;15.70;;
5379;SDS011;2713;42.680;23.310;2023-01-05T11:07:58;23.13;;;15.90;;
5379;SDS011;2713;42.680;23.310;2023-01-05T11:10:29;25.77;;;16.37;;
5379;SDS011;2713;42.680;23.310;2023-01-05T11:13:01;27.27;;;16.67;;
5379;SDS011;2713;42.680;23.310;2023-01-05T11:15:31;23.77;;;16.87;;
5379;SDS011;2713;42.680;23.310;2023-01-05T11:18:00;22.60;;;15.80;;
5379;SDS011;2713;42.680;23.310;2023-01-05T11:20:28;24.77;;;16.60;;
5379;SDS011;2713;42.680;23.310;2023-01-05T11:22:55;22.80;;;15.43;;
5379;SDS011;2713;42.680;23.310;2023-01-05T11:25:24;23.73;;;14.20;;
5379;SDS011;2713;42.680;23.310;2023-01-05T11:28:08;23.27;;;14.10;;
5379;SDS011;2713;42.680;23.310;2023-01-05T11:30:37;27.23;;;14.27;;
5379;SDS011;2713;42.680;23.310;2023-01-05T11:33:16;20.93;;;14.30;;
5379;SDS011;2713;42.680;23.310;2023-01-05T11:35:49;20.30;;;14.60;;
5379;SDS011;2713;42.680;23.310;2023-01-05T11:38:20;23.27;;;15.80;;
5379;SDS011;2713;42.680;23.310;2023-01-05T11:40:52;29.30;;;18.27;;
5379;SDS011;2713;42.680;23.310;2023-01-05T11:43:23;22.40;;;15.17;;
5379;SDS011;2713;42.680;23.310;2023-01-05T11:45:52;23.63;;;15.30;;
5379;SDS011;2713;42.680;23.310;2023-01-05T11:48:22;26.40;;;14.70;;
5379;SDS011;2713;42.680;23.310;2023-01-05T11:50:52;23.47;;;16.17;;
5379;SDS011;2713;42.680;23.310;2023-01-05T11:53:22;20.87;;;13.70;;
5379;SDS011;2713;42.680;23.310;2023-01-05T11:55:59;23.33;;;13.43;;
5379;SDS011;2713;42.680;23.310;2023-01-05T11:58:29;22.83;;;14.40;;
5379;SDS011;2713;42.680;23.310;2023-01-05T12:01:19;20.97;;;13.53;;
5379;SDS011;2713;42.680;23.310;2023-01-05T12:04:17;21.70;;;12.97;;
5379;SDS011;2713;42.680;23.310;2023-01-05T12:06:58;16.80;;;13.03;;
5379;SDS011;2713;42.680;23.310;2023-01-05T12:09:33;21.23;;;12.57;;
5379;SDS011;2713;42.680;23.310;2023-01-05T12:12:11;20.50;;;12.10;;
5379;SDS011;2713;42.680;23.310;2023-01-05T12:26:37;24.40;;;13.80;;
5379;SDS011;2713;42.680;23.310;2023-01-05T12:29:18;13.27;;;9.30;;
5379;SDS011;2713;42.680;23.310;2023-01-05T12:32:09;9.70;;;7.20;;
5379;SDS011;2713;42.680;23.310;2023-01-05T12:34:51;9.07;;;6.90;;
5379;SDS011;2713;42.680;23.310;2023-01-05T12:37:46;12.53;;;6.20;;
5379;SDS011;2713;42.680;23.310;2023-01-05T12:40:29;8.57;;;5.80;;
5379;SDS011;2713;42.680;23.310;2023-01-05T12:43:06;7.73;;;6.20;;
5379;SDS011;2713;42.680;23.310;2023-01-05T13:12:56;8.97;;;7.10;;
5379;SDS011;2713;42.680;23.310;2023-01-05T13:15:27;11.50;;;6.67;;
5379;SDS011;2713;42.680;23.310;2023-01-05T13:17:59;10.10;;;7.03;;
5379;SDS011;2713;42.680;23.310;2023-01-05T13:20:34;11.05;;;7.75;;
5379;SDS011;2713;42.680;23.310;2023-01-05T13:23:06;12.40;;;8.80;;
5379;SDS011;2713;42.680;23.310;2023-01-05T13:25:42;14.10;;;9.87;;
5379;SDS011;2713;42.680;23.310;2023-01-05T13:28:17;12.10;;;9.43;;
5379;SDS011;2713;42.680;23.310;2023-01-05T13:30:49;12.27;;;9.37;;
5379;SDS011;2713;42.680;23.310;2023-01-05T13:33:40;12.20;;;8.10;;
5379;SDS011;2713;42.680;23.310;2023-01-05T13:36:24;12.27;;;9.50;;
5379;SDS011;2713;42.680;23.310;2023-01-05T13:39:11;12.73;;;9.97;;
5379;SDS011;2713;42.680;23.310;2023-01-05T13:42:00;8.87;;;6.43;;
5379;SDS011;2713;42.680;23.310;2023-01-05T13:44:43;7.63;;;6.40;;
5379;SDS011;2713;42.680;23.310;2023-01-05T13:47:39;8.73;;;6.53;;
5379;SDS011;2713;42.680;23.310;2023-01-05T13:50:18;7.97;;;6.60;;
5379;SDS011;2713;42.680;23.310;2023-01-05T13:53:00;8.93;;;7.33;;
5379;SDS011;2713;42.680;23.310;2023-01-05T13:55:36;10.00;;;6.60;;
5379;SDS011;2713;42.680;23.310;2023-01-05T13:58:16;8.10;;;6.90;;
5379;SDS011;2713;42.680;23.310;2023-01-05T14:00:56;10.20;;;7.60;;
5379;SDS011;2713;42.680;23.310;2023-01-05T14:03:25;13.87;;;8.90;;
5379;SDS011;2713;42.680;23.310;2023-01-05T14:05:55;12.93;;;7.50;;
5379;SDS011;2713;42.680;23.310;2023-01-05T14:08:24;12.03;;;7.70;;
5379;SDS011;2713;42.680;23.310;2023-01-05T14:11:07;13.30;;;7.33;;
5379;SDS011;2713;42.680;23.310;2023-01-05T14:13:41;10.60;;;8.30;;
5379;SDS011;2713;42.680;23.310;2023-01-05T14:19:13;10.30;;;7.90;;
5379;SDS011;2713;42.680;23.310;2023-01-05T14:21:58;16.30;;;7.70;;
5379;SDS011;2713;42.680;23.310;2023-01-05T14:24:27;12.00;;;8.20;;
5379;SDS011;2713;42.680;23.310;2023-01-05T14:27:03;9.70;;;7.53;;
5379;SDS011;2713;42.680;23.310;2023-01-05T14:32:36;11.80;;;7.80;;
5379;SDS011;2713;42.680;23.310;2023-01-05T14:35:06;13.67;;;8.17;;
5379;SDS011;2713;42.680;23.310;2023-01-05T14:37:49;10.30;;;7.73;;
5379;SDS011;2713;42.680;23.310;2023-01-05T14:40:22;18.10;;;10.27;;
5379;SDS011;2713;42.680;23.310;2023-01-05T14:42:55;18.83;;;9.37;;
5379;SDS011;2713;42.680;23.310;2023-01-05T14:45:25;14.87;;;10.30;;
5379;SDS011;2713;42.680;23.310;2023-01-05T14:47:56;20.00;;;11.80;;
5379;SDS011;2713;42.680;23.310;2023-01-05T14:50:26;20.53;;;12.43;;
5379;SDS011;2713;42.680;23.310;2023-01-05T14:52:57;16.50;;;11.93;;
5379;SDS011;2713;42.680;23.310;2023-01-05T14:55:27;22.27;;;13.43;;
5379;SDS011;2713;42.680;23.310;2023-01-05T14:57:57;21.10;;;13.87;;
5379;SDS011;2713;42.680;23.310;2023-01-05T15:00:33;24.80;;;14.10;;
5379;SDS011;2713;42.680;23.310;2023-01-05T15:03:20;22.90;;;14.00;;
5379;SDS011;2713;42.680;23.310;2023-01-05T15:05:53;22.00;;;14.07;;
5379;SDS011;2713;42.680;23.310;2023-01-05T15:08:28;25.07;;;15.20;;
5379;SDS011;2713;42.680;23.310;2023-01-05T15:14:31;24.87;;;15.80;;
5379;SDS011;2713;42.680;23.310;2023-01-05T15:17:29;25.60;;;15.23;;
5379;SDS011;2713;42.680;23.310;2023-01-05T15:20:33;30.27;;;16.93;;
5379;SDS011;2713;42.680;23.310;2023-01-05T15:26:28;27.27;;;16.00;;
5379;SDS011;2713;42.680;23.310;2023-01-05T15:32:01;27.53;;;14.90;;
5379;SDS011;2713;42.680;23.310;2023-01-05T15:34:37;27.00;;;15.33;;
5379;SDS011;2713;42.680;23.310;2023-01-05T15:37:11;31.37;;;14.90;;
5379;SDS011;2713;42.680;23.310;2023-01-05T15:39:44;25.10;;;14.73;;
5379;SDS011;2713;42.680;23.310;2023-01-05T15:42:14;26.50;;;16.20;;
5379;SDS011;2713;42.680;23.310;2023-01-05T15:44:50;26.73;;;15.20;;
5379;SDS011;2713;42.680;23.310;2023-01-05T15:47:19;23.40;;;15.73;;
5379;SDS011;2713;42.680;23.310;2023-01-05T15:49:48;26.97;;;15.43;;
5379;SDS011;2713;42.680;23.310;2023-01-05T15:52:24;24.00;;;15.00;;
5379;SDS011;2713;42.680;23.310;2023-01-05T15:54:57;31.67;;;15.83;;
5379;SDS011;2713;42.680;23.310;2023-01-05T15:57:26;27.23;;;17.60;;
5379;SDS011;2713;42.680;23.310;2023-01-05T15:59:52;24.40;;;16.50;;
5379;SDS011;2713;42.680;23.310;2023-01-05T16:02:21;28.07;;;17.33;;
5379;SDS011;2713;42.680;23.310;2023-01-05T16:07:41;36.97;;;17.30;;
5379;SDS011;2713;42.680;23.310;2023-01-05T16:10:16;26.83;;;17.23;;